createdAt,value
2023-02-22T00:00:28.110Z,96160.25
2023-02-22T00:03:01.094Z,96169.28
2023-02-22T00:05:35.472Z,96165.56
2023-02-22T00:08:10.221Z,96152.88
2023-02-22T00:10:43.199Z,96160.84
2023-02-22T00:13:16.147Z,96160.84
2023-02-22T00:15:49.084Z,96148.66
2023-02-22T00:18:21.980Z,96150.22
2023-02-22T00:20:56.292Z,96151.00
2023-02-22T00:23:30.676Z,96151.22
2023-02-22T00:26:03.702Z,96139.34
2023-02-22T00:28:36.967Z,96141.38
2023-02-22T00:31:09.968Z,96139.50
2023-02-22T00:33:43.252Z,96142.94
2023-02-22T00:36:17.610Z,96149.03
2023-02-22T00:38:50.567Z,96147.19
2023-02-22T00:41:24.020Z,96152.75
2023-02-22T00:43:56.944Z,96149.31
2023-02-22T00:46:29.818Z,96153.56
2023-02-22T00:49:03.681Z,96148.06
2023-02-22T00:51:38.117Z,96148.88
2023-02-22T00:54:12.118Z,96152.09
2023-02-22T00:56:45.357Z,96157.41
2023-02-22T00:59:18.242Z,96145.03
2023-02-22T01:01:51.290Z,96143.75
2023-02-22T01:04:24.457Z,96151.22
2023-02-22T01:07:00.778Z,96143.84
2023-02-22T01:09:34.934Z,96143.66
2023-02-22T01:12:08.918Z,96138.91
2023-02-22T01:14:42.453Z,96140.31
2023-02-22T01:17:15.422Z,96129.50
2023-02-22T01:19:48.370Z,96134.31
2023-02-22T01:22:23.365Z,96136.47
2023-02-22T01:24:56.348Z,96132.56
2023-02-22T01:27:29.311Z,96131.78
2023-02-22T01:30:02.189Z,96132.06
2023-02-22T01:32:35.695Z,96125.47
2023-02-22T01:35:13.714Z,96120.47
2023-02-22T01:37:48.132Z,96122.66
2023-02-22T01:40:26.186Z,96113.44
2023-02-22T01:43:02.056Z,96120.09
2023-02-22T01:45:49.359Z,96113.81
2023-02-22T01:48:29.361Z,96121.28
2023-02-22T01:51:11.207Z,96117.94
2023-02-22T01:53:47.522Z,96113.22
2023-02-22T01:56:22.080Z,96110.06
2023-02-22T01:59:01.023Z,96106.94
2023-02-22T02:01:34.805Z,96105.97
2023-02-22T02:04:11.302Z,96107.63
2023-02-22T02:06:45.129Z,96107.72
2023-02-22T02:09:25.749Z,96107.22
2023-02-22T02:12:03.090Z,96100.97
2023-02-22T02:14:41.074Z,96100.47
2023-02-22T02:17:16.549Z,96099.97
2023-02-22T02:19:59.414Z,96104.19
2023-02-22T02:22:42.871Z,96106.31
2023-02-22T02:25:46.512Z,96106.59
2023-02-22T02:28:44.663Z,96100.06
2023-02-22T02:31:47.522Z,96092.69
2023-02-22T02:34:29.262Z,96093.25
2023-02-22T02:37:12.404Z,96104.16
2023-02-22T02:39:52.608Z,96094.16
2023-02-22T02:42:32.455Z,96087.56
2023-02-22T02:45:11.024Z,96082.88
2023-02-22T02:47:48.420Z,96088.75
2023-02-22T02:50:27.649Z,96077.66
2023-02-22T02:53:06.009Z,96089.31
2023-02-22T02:55:39.049Z,96083.84
2023-02-22T02:58:20.227Z,96084.13
2023-02-22T03:00:57.611Z,96075.97
2023-02-22T03:03:47.672Z,96078.09
2023-02-22T03:06:44.249Z,96071.28
2023-02-22T03:09:28.262Z,96064.69
2023-02-22T03:12:14.750Z,96063.91
2023-02-22T03:15:00.394Z,96061.84
2023-02-22T03:17:42.516Z,96074.59
2023-02-22T03:20:23.591Z,96069.88
2023-02-22T03:23:03.574Z,96067.50
2023-02-22T03:25:41.400Z,96068.06
2023-02-22T03:28:18.937Z,96064.16
2023-02-22T03:30:56.072Z,96072.09
2023-02-22T03:33:36.432Z,96068.16
2023-02-22T03:36:16.417Z,96068.44
2023-02-22T03:38:55.598Z,96064.22
2023-02-22T03:41:30.258Z,96059.53
2023-02-22T03:44:06.552Z,96056.41
2023-02-22T03:46:41.889Z,96055.09
2023-02-22T03:49:21.345Z,96060.41
2023-02-22T03:51:54.656Z,96059.88
2023-02-22T03:54:29.571Z,96059.41
2023-02-22T03:57:13.344Z,96057.84
2023-02-22T03:59:47.303Z,96059.97
2023-02-22T04:02:20.479Z,96054.69
2023-02-22T04:04:53.464Z,96057.91
2023-02-22T04:07:26.437Z,96060.53
2023-02-22T04:10:02.835Z,96062.91
2023-02-22T04:12:36.067Z,96058.69
2023-02-22T04:15:11.075Z,96062.91
2023-02-22T04:17:44.086Z,96062.91
2023-02-22T04:20:19.934Z,96062.34
2023-02-22T04:22:53.668Z,96057.84
2023-02-22T04:25:28.062Z,96062.53
2023-02-22T04:28:00.951Z,96065.69
2023-02-22T04:30:33.865Z,96056.69
2023-02-22T04:33:06.876Z,96061.13
2023-02-22T04:35:39.983Z,96060.81
2023-02-22T04:38:12.928Z,96054.44
2023-02-22T04:40:47.296Z,96056.25
2023-02-22T04:43:20.618Z,96062.78
2023-02-22T04:45:53.627Z,96059.56
2023-02-22T04:48:26.543Z,96062.72
2023-02-22T04:50:59.458Z,96058.13
2023-02-22T04:53:32.492Z,96057.84
2023-02-22T04:56:08.052Z,96056.19
2023-02-22T04:58:41.068Z,96053.75
2023-02-22T05:01:15.461Z,96058.97
2023-02-22T05:03:48.614Z,96054.63
2023-02-22T05:06:21.599Z,96051.59
2023-02-22T05:08:54.500Z,96047.31
2023-02-22T05:11:29.045Z,96048.00
2023-02-22T05:14:01.955Z,96044.78
2023-02-22T05:16:36.068Z,96049.19
2023-02-22T05:19:09.536Z,96055.47
2023-02-22T05:21:42.683Z,96047.72
2023-02-22T05:24:15.503Z,96052.91
2023-02-22T05:26:51.362Z,96047.81
2023-02-22T05:29:24.255Z,96047.22
2023-02-22T05:31:58.284Z,96050.56
2023-02-22T05:34:31.408Z,96045.75
2023-02-22T05:37:04.678Z,96048.31
2023-02-22T05:39:37.582Z,96044.78
2023-02-22T05:42:12.017Z,96033.31
2023-02-22T05:44:44.874Z,96034.56
2023-02-22T05:47:18.301Z,96037.13
2023-02-22T05:49:51.141Z,96026.41
2023-02-22T05:52:24.483Z,96035.81
2023-02-22T05:54:57.384Z,96040.22
2023-02-22T05:57:31.681Z,96037.19
2023-02-22T06:00:06.939Z,96045.81
2023-02-22T06:02:39.807Z,96043.84
2023-02-22T06:05:12.921Z,96039.50
2023-02-22T06:07:45.801Z,96040.50
2023-02-22T06:10:20.282Z,96037.72
2023-02-22T06:12:55.659Z,96043.38
2023-02-22T06:15:29.785Z,96044.19
2023-02-22T06:18:03.609Z,96049.38
2023-02-22T06:20:36.503Z,96042.72
2023-02-22T06:23:09.399Z,96050.03
2023-02-22T06:25:42.243Z,96049.44
2023-02-22T06:28:16.595Z,96049.31
2023-02-22T06:30:49.574Z,96047.44
2023-02-22T06:33:22.474Z,96048.44
2023-02-22T06:35:55.422Z,96046.56
2023-02-22T06:38:29.288Z,96044.88
2023-02-22T06:41:02.935Z,96049.88
2023-02-22T06:43:37.373Z,96054.28
2023-02-22T06:46:11.654Z,96046.34
2023-02-22T06:48:44.548Z,96047.56
2023-02-22T06:51:17.758Z,96049.34
2023-02-22T06:53:50.788Z,96048.72
2023-02-22T06:56:23.808Z,96053.72
2023-02-22T06:58:58.058Z,96063.44
2023-02-22T07:01:31.547Z,96058.31
2023-02-22T07:04:04.780Z,96062.22
2023-02-22T07:06:37.672Z,96057.88
2023-02-22T07:09:10.625Z,96064.16
2023-02-22T07:11:43.554Z,96062.94
2023-02-22T07:14:19.682Z,96063.28
2023-02-22T07:16:52.800Z,96062.69
2023-02-22T07:19:25.809Z,96061.16
2023-02-22T07:21:59.464Z,96063.69
2023-02-22T07:24:35.106Z,96063.72
2023-02-22T07:27:08.028Z,96068.13
2023-02-22T07:29:44.061Z,96073.94
2023-02-22T07:32:16.938Z,96067.41
2023-02-22T07:34:49.945Z,96066.66
2023-02-22T07:37:22.757Z,96066.38
2023-02-22T07:39:55.700Z,96061.56
2023-02-22T07:42:28.536Z,96063.63
2023-02-22T07:45:03.086Z,96059.09
2023-02-22T07:47:36.012Z,96068.34
2023-02-22T07:50:09.163Z,96065.38
2023-02-22T07:52:42.046Z,96059.00
2023-02-22T07:55:17.891Z,96052.28
2023-02-22T07:57:52.633Z,96048.53
2023-02-22T08:00:29.548Z,96055.56
2023-02-22T08:03:03.948Z,96054.78
2023-02-22T08:05:39.263Z,96050.69
2023-02-22T08:08:12.495Z,96051.47
2023-02-22T08:10:45.764Z,96055.34
2023-02-22T08:13:20.623Z,96051.72
2023-02-22T08:15:55.429Z,96049.81
2023-02-22T08:18:28.300Z,96049.47
2023-02-22T08:21:01.167Z,96050.66
2023-02-22T08:23:34.095Z,96049.53
2023-02-22T08:26:08.619Z,96043.06
2023-02-22T08:28:41.581Z,96044.25
2023-02-22T08:31:16.313Z,96041.03
2023-02-22T08:33:50.469Z,96044.13
2023-02-22T08:36:23.586Z,96044.97
2023-02-22T08:38:56.551Z,96048.50
2023-02-22T08:41:30.402Z,96054.69
2023-02-22T08:44:03.365Z,96047.84
2023-02-22T08:46:38.977Z,96052.59
2023-02-22T08:49:11.848Z,96050.31
2023-02-22T08:51:44.787Z,96051.94
2023-02-22T08:54:18.653Z,96054.28
2023-02-22T08:56:51.621Z,96054.34
2023-02-22T08:59:24.650Z,96049.78
2023-02-22T09:01:59.106Z,96055.16
2023-02-22T09:04:32.066Z,96044.38
2023-02-22T09:07:04.958Z,96041.25
2023-02-22T09:09:38.171Z,96048.81
2023-02-22T09:12:11.627Z,96047.16
2023-02-22T09:14:44.503Z,96040.16
2023-02-22T09:17:19.014Z,96042.72
2023-02-22T09:19:51.964Z,96035.56
2023-02-22T09:22:24.836Z,96046.16
2023-02-22T09:25:00.224Z,96040.91
2023-02-22T09:27:33.214Z,96046.34
2023-02-22T09:30:06.636Z,96041.91
2023-02-22T09:32:41.196Z,96038.13
2023-02-22T09:35:14.201Z,96034.31
2023-02-22T09:37:47.239Z,96037.41
2023-02-22T09:40:25.147Z,96038.97
2023-02-22T09:43:09.384Z,96036.44
2023-02-22T09:45:59.087Z,96028.84
2023-02-22T09:48:36.122Z,96022.78
2023-02-22T09:51:16.947Z,96025.59
2023-02-22T09:53:52.414Z,96028.00
2023-02-22T09:56:26.936Z,96021.31
2023-02-22T09:59:04.702Z,96015.38
2023-02-22T10:01:43.450Z,96024.06
2023-02-22T10:04:23.470Z,96015.88
2023-02-22T10:07:07.019Z,96016.16
2023-02-22T10:09:43.344Z,96017.13
2023-02-22T10:12:24.507Z,96014.38
2023-02-22T10:15:23.173Z,96015.44
2023-02-22T10:18:05.099Z,96012.59
2023-02-22T10:20:49.057Z,96008.66
2023-02-22T10:23:31.123Z,96002.84
2023-02-22T10:26:16.027Z,96003.88
2023-02-22T10:28:55.666Z,96006.47
2023-02-22T10:31:33.673Z,96010.53
2023-02-22T10:34:13.022Z,95998.91
2023-02-22T10:36:51.331Z,96004.19
2023-02-22T10:39:29.727Z,96005.94
2023-02-22T10:42:06.948Z,96010.75
2023-02-22T10:44:41.727Z,96003.72
2023-02-22T10:47:18.296Z,95997.38
2023-02-22T10:49:55.654Z,96006.03
2023-02-22T10:52:33.873Z,96000.88
2023-02-22T10:55:15.735Z,95999.09
2023-02-22T10:57:51.926Z,95999.31
2023-02-22T11:00:37.585Z,95996.78
2023-02-22T11:03:19.504Z,95995.78
2023-02-22T11:05:52.625Z,95990.56
2023-02-22T11:08:30.795Z,95992.72
2023-02-22T11:11:24.650Z,95984.84
2023-02-22T11:13:59.583Z,95980.69
2023-02-22T11:16:36.219Z,95979.31
2023-02-22T11:19:20.708Z,95966.81
2023-02-22T11:21:57.028Z,95968.50
2023-02-22T11:24:43.568Z,95966.34
2023-02-22T11:27:31.749Z,95971.09
2023-02-22T11:30:26.972Z,95962.81
2023-02-22T11:33:06.200Z,95960.97
2023-02-22T11:35:50.315Z,95962.63
2023-02-22T11:38:25.617Z,95958.88
2023-02-22T11:41:17.958Z,95950.53
2023-02-22T11:43:52.430Z,95953.69
2023-02-22T11:46:29.072Z,95938.75
2023-02-22T11:49:05.456Z,95941.16
2023-02-22T11:51:54.519Z,95942.78
2023-02-22T11:54:53.406Z,95939.03
2023-02-22T11:57:51.589Z,95937.53
2023-02-22T12:00:33.475Z,95939.22
2023-02-22T12:03:28.931Z,95930.78
2023-02-22T12:06:14.276Z,95934.28
2023-02-22T12:09:01.875Z,95925.88
2023-02-22T12:11:41.223Z,95921.25
2023-02-22T12:14:27.236Z,95922.44
2023-02-22T12:17:14.310Z,95919.34
2023-02-22T12:19:51.425Z,95916.28
2023-02-22T12:22:27.875Z,95913.19
2023-02-22T12:25:10.034Z,95915.88
2023-02-22T12:27:49.272Z,95923.22
2023-02-22T12:30:28.869Z,95912.44
2023-02-22T12:33:06.579Z,95915.13
2023-02-22T12:35:46.222Z,95914.38
2023-02-22T12:38:24.683Z,95912.44
2023-02-22T12:41:04.478Z,95907.88
2023-02-22T12:43:43.001Z,95910.19
2023-02-22T12:46:21.714Z,95909.44
2023-02-22T12:49:02.091Z,95901.03
2023-02-22T12:51:45.126Z,95903.72
2023-02-22T12:54:26.371Z,95900.72
2023-02-22T12:57:05.909Z,95894.97
2023-02-22T12:59:45.321Z,95897.69
2023-02-22T13:02:23.873Z,95893.91
2023-02-22T13:04:57.020Z,95896.22
2023-02-22T13:07:41.583Z,95898.19
2023-02-22T13:10:36.158Z,95894.75
2023-02-22T13:13:19.868Z,95893.63
2023-02-22T13:16:01.039Z,95898.63
2023-02-22T13:18:40.974Z,95896.72
2023-02-22T13:21:20.693Z,95893.25
2023-02-22T13:24:04.746Z,95895.53
2023-02-22T13:26:46.237Z,95891.69
2023-02-22T13:29:23.606Z,95891.28
2023-02-22T13:32:09.664Z,95888.59
2023-02-22T13:35:03.238Z,95886.63
2023-02-22T13:38:10.810Z,95892.41
2023-02-22T13:41:05.401Z,95888.53
2023-02-22T13:44:08.679Z,95884.66
2023-02-22T13:47:08.733Z,95885.81
2023-02-22T13:50:14.942Z,95877.72
2023-02-22T13:52:52.478Z,95875.75
2023-02-22T13:55:32.734Z,95880.38
2023-02-22T13:58:08.246Z,95882.25
2023-02-22T14:00:45.854Z,95882.66
2023-02-22T14:03:41.352Z,95877.63
2023-02-22T14:06:39.209Z,95874.16
2023-02-22T14:09:20.046Z,95877.22
2023-02-22T14:11:56.795Z,95879.13
2023-02-22T14:14:29.754Z,95882.97
2023-02-22T14:17:27.192Z,95882.56
2023-02-22T14:20:32.241Z,95884.91
2023-02-22T14:23:31.173Z,95879.50
2023-02-22T14:26:19.075Z,95884.50
2023-02-22T14:28:57.135Z,95888.28
2023-02-22T14:31:37.366Z,95887.50
2023-02-22T14:34:12.622Z,95884.75
2023-02-22T14:36:52.344Z,95881.69
2023-02-22T14:39:32.644Z,95893.22
2023-02-22T14:42:12.763Z,95889.69
2023-02-22T14:44:55.141Z,95889.31
2023-02-22T14:47:32.924Z,95892.75
2023-02-22T14:50:14.130Z,95884.25
2023-02-22T14:52:50.027Z,95888.84
2023-02-22T14:55:26.909Z,95887.72
2023-02-22T14:58:09.716Z,95885.38
2023-02-22T15:00:45.931Z,95888.84
2023-02-22T15:03:29.149Z,95888.09
2023-02-22T15:06:07.566Z,95878.84
2023-02-22T15:08:41.750Z,95876.16
2023-02-22T15:11:22.573Z,95876.56
2023-02-22T15:13:57.867Z,95885.78
2023-02-22T15:16:34.963Z,95882.31
2023-02-22T15:19:08.742Z,95883.09
2023-02-22T15:21:47.373Z,95888.91
2023-02-22T15:24:23.688Z,95891.97
2023-02-22T15:27:02.082Z,95890.41
2023-02-22T15:29:40.190Z,95885.78
2023-02-22T15:32:21.312Z,95886.53
2023-02-22T15:34:56.558Z,95885.38
2023-02-22T15:37:29.436Z,95891.13
2023-02-22T15:40:14.482Z,95894.19
2023-02-22T15:42:49.702Z,95898.78
2023-02-22T15:45:26.282Z,95899.16
2023-02-22T15:47:59.908Z,95894.84
2023-02-22T15:50:35.648Z,95895.22
2023-02-22T15:53:24.987Z,95902.91
2023-02-22T15:56:00.703Z,95897.47
2023-02-22T15:58:33.755Z,95907.03
2023-02-22T16:01:11.163Z,95905.84
2023-02-22T16:03:49.123Z,95907.75
2023-02-22T16:06:30.245Z,95905.78
2023-02-22T16:09:09.334Z,95908.38
2023-02-22T16:11:44.324Z,95911.00
2023-02-22T16:14:28.421Z,95914.78
2023-02-22T16:17:30.930Z,95911.25
2023-02-22T16:20:35.531Z,95920.75
2023-02-22T16:23:26.220Z,95915.63
2023-02-22T16:26:20.940Z,95913.56
2023-02-22T16:28:56.323Z,95917.28
2023-02-22T16:31:33.714Z,95917.53
2023-02-22T16:34:10.453Z,95927.41
2023-02-22T16:36:45.610Z,95923.78
2023-02-22T16:39:23.625Z,95929.41
2023-02-22T16:41:58.563Z,95924.63
2023-02-22T16:44:31.466Z,95922.56
2023-02-22T16:47:04.372Z,95926.97
2023-02-22T16:49:39.602Z,95930.69
2023-02-22T16:52:13.078Z,95937.81
2023-02-22T16:54:47.348Z,95938.06
2023-02-22T16:57:23.149Z,95936.72
2023-02-22T16:59:56.150Z,95933.50
2023-02-22T17:02:29.043Z,95938.31
2023-02-22T17:05:03.371Z,95933.59
2023-02-22T17:07:36.358Z,95935.31
2023-02-22T17:10:09.724Z,95934.41
2023-02-22T17:12:43.997Z,95942.75
2023-02-22T17:15:23.340Z,95949.88
2023-02-22T17:17:57.604Z,95945.84
2023-02-22T17:20:33.410Z,95946.91
2023-02-22T17:23:09.097Z,95952.13
2023-02-22T17:25:44.717Z,95949.28
2023-02-22T17:28:17.978Z,95951.81
2023-02-22T17:30:51.730Z,95950.56
2023-02-22T17:33:27.008Z,95956.94
2023-02-22T17:36:03.567Z,95961.47
2023-02-22T17:38:36.561Z,95965.97
2023-02-22T17:41:09.676Z,95964.69
2023-02-22T17:43:42.590Z,95958.47
2023-02-22T17:46:15.968Z,95968.34
2023-02-22T17:48:49.311Z,95960.53
2023-02-22T17:51:25.940Z,95966.25
2023-02-22T17:53:58.848Z,95968.09
2023-02-22T17:56:32.082Z,95966.44
2023-02-22T17:59:08.047Z,95969.03
2023-02-22T18:01:44.372Z,95969.03
2023-02-22T18:06:52.531Z,95971.22
2023-02-22T18:09:25.434Z,95964.97
2023-02-22T18:11:58.387Z,95968.78
2023-02-22T18:14:31.280Z,95966.03
2023-02-22T18:17:04.262Z,95966.34
2023-02-22T18:19:37.161Z,95965.91
2023-02-22T18:22:12.004Z,95973.16
2023-02-22T18:24:44.860Z,95971.59
2023-02-22T18:27:17.943Z,95962.34
2023-02-22T18:29:50.880Z,95966.19
2023-02-22T18:32:24.273Z,95960.03
2023-02-22T18:34:57.198Z,95959.59
2023-02-22T18:37:31.712Z,95965.75
2023-02-22T18:40:10.276Z,95962.28
2023-02-22T18:42:43.318Z,95965.75
2023-02-22T18:45:17.211Z,95963.50
2023-02-22T18:47:50.384Z,95962.00
2023-02-22T18:50:23.241Z,95962.44
2023-02-22T18:52:57.485Z,95964.88
2023-02-22T18:55:30.301Z,95961.09
2023-02-22T18:58:04.841Z,95966.53
2023-02-22T19:00:38.249Z,95971.97
2023-02-22T19:03:11.166Z,95972.06
2023-02-22T19:05:44.125Z,95970.16
2023-02-22T19:08:18.481Z,95973.34
2023-02-22T19:10:51.334Z,95979.16
2023-02-22T19:13:24.231Z,95975.00
2023-02-22T19:15:57.247Z,95977.69
2023-02-22T19:18:31.122Z,95978.53
2023-02-22T19:21:08.690Z,95966.34
2023-02-22T19:23:45.720Z,95969.81
2023-02-22T19:26:20.461Z,95967.91
2023-02-22T19:28:55.182Z,95960.63
2023-02-22T19:31:31.708Z,95969.13
2023-02-22T19:34:08.950Z,95957.63
2023-02-22T19:36:44.966Z,95969.13
2023-02-22T19:41:53.954Z,95965.31
2023-02-22T19:44:28.561Z,95971.81
2023-02-22T19:47:01.433Z,95962.63
2023-02-22T19:49:35.406Z,95964.53
2023-02-22T19:52:08.353Z,95969.53
2023-02-22T19:54:42.914Z,95972.22
2023-02-22T19:57:15.880Z,95959.94
2023-02-22T19:59:49.502Z,95969.53
2023-02-22T20:02:27.235Z,95966.84
2023-02-22T20:05:00.364Z,95971.81
2023-02-22T20:07:33.330Z,95976.03
2023-02-22T20:10:08.348Z,95967.91
2023-02-22T20:12:41.317Z,95968.59
2023-02-22T20:15:14.242Z,95968.19
2023-02-22T20:17:50.405Z,95973.88
2023-02-22T20:20:24.208Z,95973.00
2023-02-22T20:22:57.170Z,95972.94
2023-02-22T20:25:31.501Z,95979.78
2023-02-22T20:28:05.612Z,95982.34
2023-02-22T20:30:39.857Z,95981.50
2023-02-22T20:33:13.951Z,95976.03
2023-02-22T20:35:47.727Z,95980.19
2023-02-22T20:38:20.604Z,95981.66
2023-02-22T20:40:54.953Z,95985.00
2023-02-22T20:43:27.934Z,95985.69
2023-02-22T20:46:02.370Z,95990.28
2023-02-22T20:48:35.873Z,95986.72
2023-02-22T20:51:10.134Z,95989.41
2023-02-22T20:53:45.017Z,95996.22
2023-02-22T20:56:21.738Z,95990.09
2023-02-22T20:58:57.287Z,95988.53
2023-02-22T21:01:31.204Z,95993.47
2023-02-22T21:04:06.339Z,95992.25
2023-02-22T21:06:40.413Z,95983.09
2023-02-22T21:09:15.732Z,95993.81
2023-02-22T21:11:50.387Z,95991.91
2023-02-22T21:14:24.462Z,95993.47
2023-02-22T21:16:57.426Z,95995.81
2023-02-22T21:19:32.140Z,95987.00
2023-02-22T21:22:08.439Z,95986.63
2023-02-22T21:24:41.695Z,95981.72
2023-02-22T21:27:16.978Z,95994.44
2023-02-22T21:29:50.276Z,95984.50
2023-02-22T21:32:23.295Z,95977.56
2023-02-22T21:34:56.174Z,95980.69
2023-02-22T21:37:29.155Z,95987.63
2023-02-22T21:40:02.083Z,95988.03
2023-02-22T21:42:37.491Z,95982.66
2023-02-22T21:45:12.479Z,95991.50
2023-02-22T21:47:46.362Z,95983.44
2023-02-22T21:50:20.314Z,95985.00
2023-02-22T21:52:53.281Z,95987.69
2023-02-22T21:55:26.175Z,95983.44
2023-02-22T21:58:00.562Z,95987.34
2023-02-22T22:00:38.363Z,95985.91
2023-02-22T22:03:14.349Z,95972.03
2023-02-22T22:05:48.832Z,95978.97
2023-02-22T22:08:21.880Z,95976.63
2023-02-22T22:10:55.439Z,95971.72
2023-02-22T22:13:29.779Z,95972.03
2023-02-22T22:16:05.896Z,95972.03
2023-02-22T22:18:41.205Z,95974.72
2023-02-22T22:21:17.710Z,95975.84
2023-02-22T22:23:54.498Z,95990.81
2023-02-22T22:26:27.575Z,95981.53
2023-02-22T22:29:04.391Z,95978.88
2023-02-22T22:31:37.534Z,95980.00
2023-02-22T22:34:10.471Z,95980.31
2023-02-22T22:36:43.399Z,95970.75
2023-02-22T22:39:16.621Z,95978.78
2023-02-22T22:41:49.696Z,95980.31
2023-02-22T22:44:24.081Z,95976.91
2023-02-22T22:46:56.972Z,95971.53
2023-02-22T22:49:31.524Z,95969.97
2023-02-22T22:52:04.559Z,95970.75
2023-02-22T22:54:38.367Z,95972.28
2023-02-22T22:57:12.322Z,95971.53
2023-02-22T22:59:47.084Z,95970.75
2023-02-22T23:02:20.484Z,95968.06
2023-02-22T23:04:53.606Z,95964.19
2023-02-22T23:07:26.690Z,95971.44
2023-02-22T23:09:59.736Z,95971.00
2023-02-22T23:12:32.762Z,95961.00
2023-02-22T23:15:08.349Z,95967.88
2023-02-22T23:17:42.546Z,95971.69
2023-02-22T23:20:15.858Z,95973.59
2023-02-22T23:22:48.756Z,95971.69
2023-02-22T23:25:22.661Z,95971.25
2023-02-22T23:27:55.743Z,95967.47
2023-02-22T23:30:30.833Z,95965.56
2023-02-22T23:33:03.744Z,95965.91
2023-02-22T23:35:36.930Z,95963.22
2023-02-22T23:38:11.248Z,95964.00
2023-02-22T23:40:46.102Z,95965.91
2023-02-22T23:43:21.873Z,95958.66
2023-02-22T23:45:57.624Z,95961.00
2023-02-22T23:48:30.711Z,95958.66
2023-02-22T23:51:09.208Z,95956.38
2023-02-22T23:53:45.979Z,95962.09
2023-02-22T23:56:22.054Z,95969.78
2023-02-22T23:58:57.539Z,95965.91
